sensor_id;sensor_type;location;lat;lon;timestamp;temperature;humidity
26691;DHT22;14307;51.718;8.938;2023-07-31T00:00:12;14.60;99.90
26691;DHT22;14307;51.718;8.938;2023-07-31T00:02:39;14.60;99.90
26691;DHT22;14307;51.718;8.938;2023-07-31T00:05:08;14.60;99.90
26691;DHT22;14307;51.718;8.938;2023-07-31T00:07:35;14.60;99.90
26691;DHT22;14307;51.718;8.938;2023-07-31T00:10:02;14.60;99.90
26691;DHT22;14307;51.718;8.938;2023-07-31T00:12:29;14.60;99.90
26691;DHT22;14307;51.718;8.938;2023-07-31T00:14:56;14.60;99.90
26691;DHT22;14307;51.718;8.938;2023-07-31T00:17:23;14.60;99.90
26691;DHT22;14307;51.718;8.938;2023-07-31T00:19:51;14.60;99.90
26691;DHT22;14307;51.718;8.938;2023-07-31T00:22:17;14.60;99.90
26691;DHT22;14307;51.718;8.938;2023-07-31T00:24:44;14.60;99.90
26691;DHT22;14307;51.718;8.938;2023-07-31T00:27:11;14.60;99.90
26691;DHT22;14307;51.718;8.938;2023-07-31T00:29:38;14.50;99.90
26691;DHT22;14307;51.718;8.938;2023-07-31T00:32:05;14.60;99.90
26691;DHT22;14307;51.718;8.938;2023-07-31T00:34:32;14.60;99.90
26691;DHT22;14307;51.718;8.938;2023-07-31T00:36:59;14.60;99.90
26691;DHT22;14307;51.718;8.938;2023-07-31T00:39:26;14.70;99.90
26691;DHT22;14307;51.718;8.938;2023-07-31T00:41:53;14.70;99.90
26691;DHT22;14307;51.718;8.938;2023-07-31T00:44:20;14.70;99.90
26691;DHT22;14307;51.718;8.938;2023-07-31T00:46:48;14.70;99.90
26691;DHT22;14307;51.718;8.938;2023-07-31T00:49:15;14.70;99.90
26691;DHT22;14307;51.718;8.938;2023-07-31T00:51:43;14.70;99.90
26691;DHT22;14307;51.718;8.938;2023-07-31T00:54:09;14.70;99.90
26691;DHT22;14307;51.718;8.938;2023-07-31T00:56:38;14.70;99.90
26691;DHT22;14307;51.718;8.938;2023-07-31T00:59:07;14.80;99.90
26691;DHT22;14307;51.718;8.938;2023-07-31T01:01:34;14.80;99.90
26691;DHT22;14307;51.718;8.938;2023-07-31T01:04:01;14.80;99.90
26691;DHT22;14307;51.718;8.938;2023-07-31T01:07:11;14.80;99.90
26691;DHT22;14307;51.718;8.938;2023-07-31T01:10:41;14.80;99.90
26691;DHT22;14307;51.718;8.938;2023-07-31T01:12:36;14.80;99.90
26691;DHT22;14307;51.718;8.938;2023-07-31T01:15:05;14.80;99.90
26691;DHT22;14307;51.718;8.938;2023-07-31T01:17:33;14.80;99.90
26691;DHT22;14307;51.718;8.938;2023-07-31T01:20:02;14.80;99.90
26691;DHT22;14307;51.718;8.938;2023-07-31T01:30:59;14.80;99.90
26691;DHT22;14307;51.718;8.938;2023-07-31T01:33:27;14.80;99.90
26691;DHT22;14307;51.718;8.938;2023-07-31T01:35:56;14.90;99.90
26691;DHT22;14307;51.718;8.938;2023-07-31T01:38:23;14.80;99.90
26691;DHT22;14307;51.718;8.938;2023-07-31T01:40:53;14.80;99.90
26691;DHT22;14307;51.718;8.938;2023-07-31T01:43:20;14.80;99.90
26691;DHT22;14307;51.718;8.938;2023-07-31T01:45:47;14.80;99.90
26691;DHT22;14307;51.718;8.938;2023-07-31T01:48:14;14.80;99.90
26691;DHT22;14307;51.718;8.938;2023-07-31T01:50:40;14.80;99.90
26691;DHT22;14307;51.718;8.938;2023-07-31T01:53:07;14.80;99.90
26691;DHT22;14307;51.718;8.938;2023-07-31T01:55:34;14.80;99.90
26691;DHT22;14307;51.718;8.938;2023-07-31T01:58:01;14.80;99.90
26691;DHT22;14307;51.718;8.938;2023-07-31T02:00:29;14.80;99.90
26691;DHT22;14307;51.718;8.938;2023-07-31T02:02:55;14.70;99.90
26691;DHT22;14307;51.718;8.938;2023-07-31T02:05:23;14.70;99.90
26691;DHT22;14307;51.718;8.938;2023-07-31T02:07:50;14.70;99.90
26691;DHT22;14307;51.718;8.938;2023-07-31T02:10:17;14.70;99.90
26691;DHT22;14307;51.718;8.938;2023-07-31T02:12:43;14.80;99.90
26691;DHT22;14307;51.718;8.938;2023-07-31T04:20:05;14.80;99.90
26691;DHT22;14307;51.718;8.938;2023-07-31T04:22:33;14.80;99.90
26691;DHT22;14307;51.718;8.938;2023-07-31T04:25:00;14.80;99.90
26691;DHT22;14307;51.718;8.938;2023-07-31T04:27:27;14.80;99.90
26691;DHT22;14307;51.718;8.938;2023-07-31T04:29:53;14.80;99.90
26691;DHT22;14307;51.718;8.938;2023-07-31T04:32:21;14.90;99.90
26691;DHT22;14307;51.718;8.938;2023-07-31T04:34:48;14.90;99.90
26691;DHT22;14307;51.718;8.938;2023-07-31T04:37:15;14.80;99.90
26691;DHT22;14307;51.718;8.938;2023-07-31T04:39:41;14.80;99.90
26691;DHT22;14307;51.718;8.938;2023-07-31T04:42:08;14.70;99.90
26691;DHT22;14307;51.718;8.938;2023-07-31T04:44:35;14.70;99.90
26691;DHT22;14307;51.718;8.938;2023-07-31T04:47:02;14.70;99.90
26691;DHT22;14307;51.718;8.938;2023-07-31T04:49:29;14.70;99.90
26691;DHT22;14307;51.718;8.938;2023-07-31T04:51:56;14.70;99.90
26691;DHT22;14307;51.718;8.938;2023-07-31T04:54:23;14.70;99.90
26691;DHT22;14307;51.718;8.938;2023-07-31T04:56:53;14.70;99.90
26691;DHT22;14307;51.718;8.938;2023-07-31T04:59:20;14.70;99.90
26691;DHT22;14307;51.718;8.938;2023-07-31T05:01:47;14.70;99.90
26691;DHT22;14307;51.718;8.938;2023-07-31T05:04:15;14.80;99.90
26691;DHT22;14307;51.718;8.938;2023-07-31T05:06:42;14.80;99.90
26691;DHT22;14307;51.718;8.938;2023-07-31T05:09:09;14.80;99.90
26691;DHT22;14307;51.718;8.938;2023-07-31T05:11:36;14.80;99.90
26691;DHT22;14307;51.718;8.938;2023-07-31T05:14:03;14.80;99.90
26691;DHT22;14307;51.718;8.938;2023-07-31T05:16:30;14.80;99.90
26691;DHT22;14307;51.718;8.938;2023-07-31T05:18:56;14.90;99.90
26691;DHT22;14307;51.718;8.938;2023-07-31T05:21:23;14.90;99.90
26691;DHT22;14307;51.718;8.938;2023-07-31T05:23:50;14.90;99.90
26691;DHT22;14307;51.718;8.938;2023-07-31T05:26:17;14.90;99.90
26691;DHT22;14307;51.718;8.938;2023-07-31T05:28:45;14.90;99.90
26691;DHT22;14307;51.718;8.938;2023-07-31T05:31:12;15.00;99.90
26691;DHT22;14307;51.718;8.938;2023-07-31T05:33:39;15.00;99.90
26691;DHT22;14307;51.718;8.938;2023-07-31T05:36:06;15.10;99.90
26691;DHT22;14307;51.718;8.938;2023-07-31T05:38:33;15.10;99.90
26691;DHT22;14307;51.718;8.938;2023-07-31T05:40:59;15.10;99.90
26691;DHT22;14307;51.718;8.938;2023-07-31T05:43:26;15.20;99.90
26691;DHT22;14307;51.718;8.938;2023-07-31T05:45:53;15.20;99.90
26691;DHT22;14307;51.718;8.938;2023-07-31T05:48:20;15.30;99.90
26691;DHT22;14307;51.718;8.938;2023-07-31T05:50:47;15.30;99.90
26691;DHT22;14307;51.718;8.938;2023-07-31T05:53:14;15.30;99.90
26691;DHT22;14307;51.718;8.938;2023-07-31T05:55:41;15.40;99.90
26691;DHT22;14307;51.718;8.938;2023-07-31T05:58:08;15.40;99.90
26691;DHT22;14307;51.718;8.938;2023-07-31T06:00:35;15.40;99.90
26691;DHT22;14307;51.718;8.938;2023-07-31T06:03:01;15.40;99.90
26691;DHT22;14307;51.718;8.938;2023-07-31T06:05:29;15.40;99.90
26691;DHT22;14307;51.718;8.938;2023-07-31T06:07:57;15.40;99.90
26691;DHT22;14307;51.718;8.938;2023-07-31T06:10:24;15.50;99.90
26691;DHT22;14307;51.718;8.938;2023-07-31T06:12:51;15.50;99.90
26691;DHT22;14307;51.718;8.938;2023-07-31T06:15:17;15.40;99.90
26691;DHT22;14307;51.718;8.938;2023-07-31T06:17:47;15.50;99.90
26691;DHT22;14307;51.718;8.938;2023-07-31T06:20:14;15.40;99.90
26691;DHT22;14307;51.718;8.938;2023-07-31T06:22:41;15.50;99.90
26691;DHT22;14307;51.718;8.938;2023-07-31T06:25:08;15.40;99.90
26691;DHT22;14307;51.718;8.938;2023-07-31T06:27:39;15.40;99.90
26691;DHT22;14307;51.718;8.938;2023-07-31T06:30:07;15.50;99.90
26691;DHT22;14307;51.718;8.938;2023-07-31T06:32:34;15.50;99.90
26691;DHT22;14307;51.718;8.938;2023-07-31T06:35:00;15.50;99.90
26691;DHT22;14307;51.718;8.938;2023-07-31T06:37:27;15.60;99.90
26691;DHT22;14307;51.718;8.938;2023-07-31T06:39:54;15.60;99.90
26691;DHT22;14307;51.718;8.938;2023-07-31T06:42:21;15.60;99.90
26691;DHT22;14307;51.718;8.938;2023-07-31T06:44:48;15.60;99.90
26691;DHT22;14307;51.718;8.938;2023-07-31T06:47:15;15.60;99.90
26691;DHT22;14307;51.718;8.938;2023-07-31T06:49:42;15.60;99.90
26691;DHT22;14307;51.718;8.938;2023-07-31T06:52:09;15.60;99.90
26691;DHT22;14307;51.718;8.938;2023-07-31T06:54:37;15.60;99.90
26691;DHT22;14307;51.718;8.938;2023-07-31T06:57:04;15.60;99.90
26691;DHT22;14307;51.718;8.938;2023-07-31T06:59:31;15.60;99.90
26691;DHT22;14307;51.718;8.938;2023-07-31T07:01:58;15.60;99.90
26691;DHT22;14307;51.718;8.938;2023-07-31T07:04:25;15.70;99.90
26691;DHT22;14307;51.718;8.938;2023-07-31T07:06:53;15.70;99.90
26691;DHT22;14307;51.718;8.938;2023-07-31T07:09:20;15.70;99.90
26691;DHT22;14307;51.718;8.938;2023-07-31T07:11:46;15.70;99.90
26691;DHT22;14307;51.718;8.938;2023-07-31T07:14:13;15.60;99.90
26691;DHT22;14307;51.718;8.938;2023-07-31T07:16:40;15.70;99.90
26691;DHT22;14307;51.718;8.938;2023-07-31T07:19:08;15.70;99.90
26691;DHT22;14307;51.718;8.938;2023-07-31T07:21:35;15.60;99.90
26691;DHT22;14307;51.718;8.938;2023-07-31T07:24:01;15.60;99.90
26691;DHT22;14307;51.718;8.938;2023-07-31T07:26:28;15.60;99.90
26691;DHT22;14307;51.718;8.938;2023-07-31T07:28:55;15.60;99.90
26691;DHT22;14307;51.718;8.938;2023-07-31T07:31:24;15.50;99.90
26691;DHT22;14307;51.718;8.938;2023-07-31T07:33:50;15.40;99.90
26691;DHT22;14307;51.718;8.938;2023-07-31T07:36:17;15.40;99.90
26691;DHT22;14307;51.718;8.938;2023-07-31T07:38:44;15.40;99.90
26691;DHT22;14307;51.718;8.938;2023-07-31T07:41:11;15.40;99.90
26691;DHT22;14307;51.718;8.938;2023-07-31T07:43:38;15.40;99.90
26691;DHT22;14307;51.718;8.938;2023-07-31T07:46:05;15.40;99.90
26691;DHT22;14307;51.718;8.938;2023-07-31T07:48:32;15.40;99.90
26691;DHT22;14307;51.718;8.938;2023-07-31T07:50:59;15.50;99.90
26691;DHT22;14307;51.718;8.938;2023-07-31T07:53:25;15.50;99.90
26691;DHT22;14307;51.718;8.938;2023-07-31T07:55:52;15.50;99.90
26691;DHT22;14307;51.718;8.938;2023-07-31T07:58:20;15.60;99.90
26691;DHT22;14307;51.718;8.938;2023-07-31T08:00:53;15.60;99.90
26691;DHT22;14307;51.718;8.938;2023-07-31T08:03:20;15.60;99.90
26691;DHT22;14307;51.718;8.938;2023-07-31T08:05:47;15.50;99.90
26691;DHT22;14307;51.718;8.938;2023-07-31T08:08:17;15.50;99.90
26691;DHT22;14307;51.718;8.938;2023-07-31T08:10:44;15.50;99.90
26691;DHT22;14307;51.718;8.938;2023-07-31T08:13:14;15.40;99.90
26691;DHT22;14307;51.718;8.938;2023-07-31T08:15:43;15.40;99.90
26691;DHT22;14307;51.718;8.938;2023-07-31T08:18:11;15.40;99.90
26691;DHT22;14307;51.718;8.938;2023-07-31T08:20:38;15.40;99.90
26691;DHT22;14307;51.718;8.938;2023-07-31T08:23:05;15.30;99.90
26691;DHT22;14307;51.718;8.938;2023-07-31T08:25:34;15.40;99.90
26691;DHT22;14307;51.718;8.938;2023-07-31T08:28:02;15.40;99.90
26691;DHT22;14307;51.718;8.938;2023-07-31T08:30:29;15.40;99.90
26691;DHT22;14307;51.718;8.938;2023-07-31T08:32:57;15.40;99.90
26691;DHT22;14307;51.718;8.938;2023-07-31T08:35:24;15.60;99.90
26691;DHT22;14307;51.718;8.938;2023-07-31T08:37:52;15.60;99.90
26691;DHT22;14307;51.718;8.938;2023-07-31T08:40:19;15.70;99.90
26691;DHT22;14307;51.718;8.938;2023-07-31T08:42:53;15.80;99.90
26691;DHT22;14307;51.718;8.938;2023-07-31T08:45:21;15.70;99.90
26691;DHT22;14307;51.718;8.938;2023-07-31T08:47:50;15.80;99.90
26691;DHT22;14307;51.718;8.938;2023-07-31T08:50:19;15.90;99.90
26691;DHT22;14307;51.718;8.938;2023-07-31T08:52:48;15.90;99.90
26691;DHT22;14307;51.718;8.938;2023-07-31T08:55:16;15.90;99.90
26691;DHT22;14307;51.718;8.938;2023-07-31T08:57:43;16.00;99.90
26691;DHT22;14307;51.718;8.938;2023-07-31T09:00:11;16.00;99.90
26691;DHT22;14307;51.718;8.938;2023-07-31T09:02:46;16.00;99.90
26691;DHT22;14307;51.718;8.938;2023-07-31T09:05:14;16.00;99.90
26691;DHT22;14307;51.718;8.938;2023-07-31T09:07:44;16.10;99.90
26691;DHT22;14307;51.718;8.938;2023-07-31T09:10:13;16.00;99.90
26691;DHT22;14307;51.718;8.938;2023-07-31T09:12:40;16.00;99.90
26691;DHT22;14307;51.718;8.938;2023-07-31T09:15:08;16.00;99.90
26691;DHT22;14307;51.718;8.938;2023-07-31T09:17:46;16.00;99.90
26691;DHT22;14307;51.718;8.938;2023-07-31T09:20:17;16.10;99.90
26691;DHT22;14307;51.718;8.938;2023-07-31T09:22:45;16.10;99.90
26691;DHT22;14307;51.718;8.938;2023-07-31T09:25:25;16.10;99.90
26691;DHT22;14307;51.718;8.938;2023-07-31T09:27:58;16.10;99.90
26691;DHT22;14307;51.718;8.938;2023-07-31T09:30:26;16.10;99.90
26691;DHT22;14307;51.718;8.938;2023-07-31T09:33:06;16.10;99.90
26691;DHT22;14307;51.718;8.938;2023-07-31T09:35:34;16.20;99.90
26691;DHT22;14307;51.718;8.938;2023-07-31T09:38:06;16.20;99.90
26691;DHT22;14307;51.718;8.938;2023-07-31T09:40:39;16.30;99.90
26691;DHT22;14307;51.718;8.938;2023-07-31T09:43:08;16.40;99.90
26691;DHT22;14307;51.718;8.938;2023-07-31T09:45:41;16.40;99.90
26691;DHT22;14307;51.718;8.938;2023-07-31T09:48:14;16.60;99.90
26691;DHT22;14307;51.718;8.938;2023-07-31T09:50:46;16.60;99.90
26691;DHT22;14307;51.718;8.938;2023-07-31T09:53:14;16.70;99.90
26691;DHT22;14307;51.718;8.938;2023-07-31T09:55:43;16.80;99.90
26691;DHT22;14307;51.718;8.938;2023-07-31T09:58:11;16.80;99.90
26691;DHT22;14307;51.718;8.938;2023-07-31T10:00:39;16.90;99.90
26691;DHT22;14307;51.718;8.938;2023-07-31T10:03:08;16.90;99.90
26691;DHT22;14307;51.718;8.938;2023-07-31T10:05:45;16.90;99.90
26691;DHT22;14307;51.718;8.938;2023-07-31T10:08:15;16.90;99.90
26691;DHT22;14307;51.718;8.938;2023-07-31T10:10:44;17.00;99.90
26691;DHT22;14307;51.718;8.938;2023-07-31T10:13:12;17.00;99.90
26691;DHT22;14307;51.718;8.938;2023-07-31T10:15:39;17.00;99.90
26691;DHT22;14307;51.718;8.938;2023-07-31T10:18:08;17.10;99.90
26691;DHT22;14307;51.718;8.938;2023-07-31T10:20:35;17.00;99.90
26691;DHT22;14307;51.718;8.938;2023-07-31T10:23:03;17.00;99.90
26691;DHT22;14307;51.718;8.938;2023-07-31T10:25:30;16.90;99.90
26691;DHT22;14307;51.718;8.938;2023-07-31T10:27:58;16.90;99.90
26691;DHT22;14307;51.718;8.938;2023-07-31T10:30:28;17.00;99.90
26691;DHT22;14307;51.718;8.938;2023-07-31T10:32:57;17.20;99.90
26691;DHT22;14307;51.718;8.938;2023-07-31T10:35:25;17.20;99.90
26691;DHT22;14307;51.718;8.938;2023-07-31T10:37:52;17.10;99.90
26691;DHT22;14307;51.718;8.938;2023-07-31T10:40:24;17.00;99.90
26691;DHT22;14307;51.718;8.938;2023-07-31T10:42:55;17.00;99.90
26691;DHT22;14307;51.718;8.938;2023-07-31T10:45:38;17.00;99.90
26691;DHT22;14307;51.718;8.938;2023-07-31T10:48:17;17.00;99.90
26691;DHT22;14307;51.718;8.938;2023-07-31T10:50:51;16.90;99.90
26691;DHT22;14307;51.718;8.938;2023-07-31T10:53:32;16.80;99.90
26691;DHT22;14307;51.718;8.938;2023-07-31T10:56:04;16.80;99.90
26691;DHT22;14307;51.718;8.938;2023-07-31T10:58:33;16.80;99.90
26691;DHT22;14307;51.718;8.938;2023-07-31T11:01:04;16.70;99.90
26691;DHT22;14307;51.718;8.938;2023-07-31T11:03:49;16.70;99.90
26691;DHT22;14307;51.718;8.938;2023-07-31T11:06:19;16.70;99.90
26691;DHT22;14307;51.718;8.938;2023-07-31T11:08:48;16.60;99.90
26691;DHT22;14307;51.718;8.938;2023-07-31T11:11:19;16.50;99.90
26691;DHT22;14307;51.718;8.938;2023-07-31T11:13:51;16.40;99.90
26691;DHT22;14307;51.718;8.938;2023-07-31T11:16:25;16.40;99.90
26691;DHT22;14307;51.718;8.938;2023-07-31T11:18:53;16.40;99.90
26691;DHT22;14307;51.718;8.938;2023-07-31T11:21:24;16.40;99.90
26691;DHT22;14307;51.718;8.938;2023-07-31T11:23:56;16.40;99.90
26691;DHT22;14307;51.718;8.938;2023-07-31T11:26:25;16.30;99.90
26691;DHT22;14307;51.718;8.938;2023-07-31T11:28:52;16.30;99.90
26691;DHT22;14307;51.718;8.938;2023-07-31T11:31:19;16.30;99.90
26691;DHT22;14307;51.718;8.938;2023-07-31T11:33:46;16.30;99.90
26691;DHT22;14307;51.718;8.938;2023-07-31T11:36:18;16.30;99.90
26691;DHT22;14307;51.718;8.938;2023-07-31T11:38:45;16.40;99.90
26691;DHT22;14307;51.718;8.938;2023-07-31T11:41:15;16.40;99.90
26691;DHT22;14307;51.718;8.938;2023-07-31T11:43:46;16.50;99.90
26691;DHT22;14307;51.718;8.938;2023-07-31T11:46:14;16.50;99.90
26691;DHT22;14307;51.718;8.938;2023-07-31T11:48:42;16.60;99.90
26691;DHT22;14307;51.718;8.938;2023-07-31T11:51:10;16.50;99.90
26691;DHT22;14307;51.718;8.938;2023-07-31T11:53:52;16.50;99.90
26691;DHT22;14307;51.718;8.938;2023-07-31T11:56:21;16.60;99.90
26691;DHT22;14307;51.718;8.938;2023-07-31T11:58:58;16.50;99.90
26691;DHT22;14307;51.718;8.938;2023-07-31T12:01:27;16.50;99.90
26691;DHT22;14307;51.718;8.938;2023-07-31T12:03:55;16.50;99.90
26691;DHT22;14307;51.718;8.938;2023-07-31T12:06:35;16.60;99.90
26691;DHT22;14307;51.718;8.938;2023-07-31T12:09:04;16.60;99.90
26691;DHT22;14307;51.718;8.938;2023-07-31T12:11:42;16.60;99.90
26691;DHT22;14307;51.718;8.938;2023-07-31T12:14:26;16.50;99.90
26691;DHT22;14307;51.718;8.938;2023-07-31T12:17:00;16.40;99.90
26691;DHT22;14307;51.718;8.938;2023-07-31T12:19:28;16.30;99.90
26691;DHT22;14307;51.718;8.938;2023-07-31T12:21:57;16.30;99.90
26691;DHT22;14307;51.718;8.938;2023-07-31T12:24:26;16.20;99.90
26691;DHT22;14307;51.718;8.938;2023-07-31T12:26:53;16.20;99.90
26691;DHT22;14307;51.718;8.938;2023-07-31T12:29:21;16.30;99.90
26691;DHT22;14307;51.718;8.938;2023-07-31T12:31:48;16.30;99.90
26691;DHT22;14307;51.718;8.938;2023-07-31T12:34:20;16.40;99.90
26691;DHT22;14307;51.718;8.938;2023-07-31T12:36:53;16.40;99.90
26691;DHT22;14307;51.718;8.938;2023-07-31T12:39:20;16.50;99.90
26691;DHT22;14307;51.718;8.938;2023-07-31T12:41:47;16.60;99.90
26691;DHT22;14307;51.718;8.938;2023-07-31T12:44:14;16.70;99.90
26691;DHT22;14307;51.718;8.938;2023-07-31T12:46:41;16.80;99.90
26691;DHT22;14307;51.718;8.938;2023-07-31T12:49:08;16.80;99.90
26691;DHT22;14307;51.718;8.938;2023-07-31T12:51:36;16.90;99.90
26691;DHT22;14307;51.718;8.938;2023-07-31T12:54:03;17.00;99.90
26691;DHT22;14307;51.718;8.938;2023-07-31T12:56:30;17.00;99.90
26691;DHT22;14307;51.718;8.938;2023-07-31T12:58:57;17.00;99.90
26691;DHT22;14307;51.718;8.938;2023-07-31T13:01:24;17.00;99.90
26691;DHT22;14307;51.718;8.938;2023-07-31T13:03:51;17.00;99.90
26691;DHT22;14307;51.718;8.938;2023-07-31T13:06:18;17.10;99.90
26691;DHT22;14307;51.718;8.938;2023-07-31T13:08:45;17.00;99.90
26691;DHT22;14307;51.718;8.938;2023-07-31T13:11:12;17.00;99.90
26691;DHT22;14307;51.718;8.938;2023-07-31T13:13:39;17.00;99.90
26691;DHT22;14307;51.718;8.938;2023-07-31T13:16:06;17.00;99.90
26691;DHT22;14307;51.718;8.938;2023-07-31T13:18:33;17.00;99.90
26691;DHT22;14307;51.718;8.938;2023-07-31T13:21:00;16.90;99.90
26691;DHT22;14307;51.718;8.938;2023-07-31T13:23:27;16.90;99.90
26691;DHT22;14307;51.718;8.938;2023-07-31T13:25:54;16.90;99.90
26691;DHT22;14307;51.718;8.938;2023-07-31T13:28:21;16.80;99.90
26691;DHT22;14307;51.718;8.938;2023-07-31T13:30:48;16.80;99.90
26691;DHT22;14307;51.718;8.938;2023-07-31T13:33:15;16.80;99.90
26691;DHT22;14307;51.718;8.938;2023-07-31T13:36:00;16.90;99.90
26691;DHT22;14307;51.718;8.938;2023-07-31T13:38:27;16.90;99.90
26691;DHT22;14307;51.718;8.938;2023-07-31T13:40:54;17.00;99.90
26691;DHT22;14307;51.718;8.938;2023-07-31T13:43:21;17.00;99.90
26691;DHT22;14307;51.718;8.938;2023-07-31T13:45:47;17.00;99.90
26691;DHT22;14307;51.718;8.938;2023-07-31T13:48:14;16.90;99.90
26691;DHT22;14307;51.718;8.938;2023-07-31T13:50:42;16.80;99.90
26691;DHT22;14307;51.718;8.938;2023-07-31T13:53:09;16.90;99.90
26691;DHT22;14307;51.718;8.938;2023-07-31T13:55:36;16.80;99.90
26691;DHT22;14307;51.718;8.938;2023-07-31T13:58:03;16.90;99.90
26691;DHT22;14307;51.718;8.938;2023-07-31T14:00:32;17.00;99.90
26691;DHT22;14307;51.718;8.938;2023-07-31T14:02:59;17.00;99.90
26691;DHT22;14307;51.718;8.938;2023-07-31T14:05:26;17.10;99.90
26691;DHT22;14307;51.718;8.938;2023-07-31T14:07:53;17.10;99.90
26691;DHT22;14307;51.718;8.938;2023-07-31T14:10:20;17.20;99.90
26691;DHT22;14307;51.718;8.938;2023-07-31T14:12:47;17.20;99.90
26691;DHT22;14307;51.718;8.938;2023-07-31T14:15:13;17.20;99.90
26691;DHT22;14307;51.718;8.938;2023-07-31T14:17:40;17.20;99.90
26691;DHT22;14307;51.718;8.938;2023-07-31T14:20:08;17.20;99.90
26691;DHT22;14307;51.718;8.938;2023-07-31T14:22:36;17.10;99.90
26691;DHT22;14307;51.718;8.938;2023-07-31T14:25:04;17.10;99.90
26691;DHT22;14307;51.718;8.938;2023-07-31T14:27:31;17.00;99.90
26691;DHT22;14307;51.718;8.938;2023-07-31T14:29:58;16.90;99.90
26691;DHT22;14307;51.718;8.938;2023-07-31T14:32:25;16.90;99.90
26691;DHT22;14307;51.718;8.938;2023-07-31T14:34:53;16.90;99.90
26691;DHT22;14307;51.718;8.938;2023-07-31T14:37:21;16.80;99.90
26691;DHT22;14307;51.718;8.938;2023-07-31T14:39:47;16.80;99.90
26691;DHT22;14307;51.718;8.938;2023-07-31T14:42:14;16.80;99.90
26691;DHT22;14307;51.718;8.938;2023-07-31T14:44:43;16.70;99.90
26691;DHT22;14307;51.718;8.938;2023-07-31T14:47:10;16.60;99.90
26691;DHT22;14307;51.718;8.938;2023-07-31T14:49:36;16.60;99.90
26691;DHT22;14307;51.718;8.938;2023-07-31T14:52:04;16.60;99.90
26691;DHT22;14307;51.718;8.938;2023-07-31T14:54:30;16.60;99.90
26691;DHT22;14307;51.718;8.938;2023-07-31T14:56:57;16.60;99.90
26691;DHT22;14307;51.718;8.938;2023-07-31T14:59:24;16.60;99.90
26691;DHT22;14307;51.718;8.938;2023-07-31T15:01:51;16.70;99.90
26691;DHT22;14307;51.718;8.938;2023-07-31T15:04:18;16.70;99.90
26691;DHT22;14307;51.718;8.938;2023-07-31T15:06:48;16.70;99.90
26691;DHT22;14307;51.718;8.938;2023-07-31T15:09:15;16.70;99.90
26691;DHT22;14307;51.718;8.938;2023-07-31T15:11:42;16.70;99.90
26691;DHT22;14307;51.718;8.938;2023-07-31T15:14:08;16.70;99.90
26691;DHT22;14307;51.718;8.938;2023-07-31T15:16:35;16.70;99.90
26691;DHT22;14307;51.718;8.938;2023-07-31T15:19:02;16.80;99.90
26691;DHT22;14307;51.718;8.938;2023-07-31T15:21:30;16.80;99.90
26691;DHT22;14307;51.718;8.938;2023-07-31T15:23:57;16.80;99.90
26691;DHT22;14307;51.718;8.938;2023-07-31T15:26:24;16.90;99.90
26691;DHT22;14307;51.718;8.938;2023-07-31T15:28:57;16.90;99.90
26691;DHT22;14307;51.718;8.938;2023-07-31T15:31:26;16.90;99.90
26691;DHT22;14307;51.718;8.938;2023-07-31T15:33:53;16.90;99.90
26691;DHT22;14307;51.718;8.938;2023-07-31T15:36:20;16.90;99.90
26691;DHT22;14307;51.718;8.938;2023-07-31T15:38:47;16.90;99.90
26691;DHT22;14307;51.718;8.938;2023-07-31T15:41:18;16.80;99.90
26691;DHT22;14307;51.718;8.938;2023-07-31T15:43:48;16.90;99.90
26691;DHT22;14307;51.718;8.938;2023-07-31T15:46:15;16.90;99.90
26691;DHT22;14307;51.718;8.938;2023-07-31T15:48:42;16.90;99.90
26691;DHT22;14307;51.718;8.938;2023-07-31T15:51:09;16.90;99.90
26691;DHT22;14307;51.718;8.938;2023-07-31T15:53:37;16.90;99.90
26691;DHT22;14307;51.718;8.938;2023-07-31T15:56:04;17.00;99.90
26691;DHT22;14307;51.718;8.938;2023-07-31T15:58:31;17.00;99.90
26691;DHT22;14307;51.718;8.938;2023-07-31T16:00:58;17.00;99.90
26691;DHT22;14307;51.718;8.938;2023-07-31T16:03:25;17.00;99.90
26691;DHT22;14307;51.718;8.938;2023-07-31T16:05:51;17.00;99.90
26691;DHT22;14307;51.718;8.938;2023-07-31T16:08:18;17.10;99.90
26691;DHT22;14307;51.718;8.938;2023-07-31T16:10:46;17.10;99.90
26691;DHT22;14307;51.718;8.938;2023-07-31T16:13:13;17.10;99.90
26691;DHT22;14307;51.718;8.938;2023-07-31T16:15:39;17.10;99.90
26691;DHT22;14307;51.718;8.938;2023-07-31T16:18:06;17.20;99.90
26691;DHT22;14307;51.718;8.938;2023-07-31T16:20:34;17.10;99.90
26691;DHT22;14307;51.718;8.938;2023-07-31T16:23:01;17.10;99.90
26691;DHT22;14307;51.718;8.938;2023-07-31T16:25:31;17.20;99.90
26691;DHT22;14307;51.718;8.938;2023-07-31T16:27:58;17.20;99.90
26691;DHT22;14307;51.718;8.938;2023-07-31T16:30:26;17.10;99.90
26691;DHT22;14307;51.718;8.938;2023-07-31T16:32:52;17.20;99.90
26691;DHT22;14307;51.718;8.938;2023-07-31T16:35:20;17.20;99.90
26691;DHT22;14307;51.718;8.938;2023-07-31T16:37:47;17.20;99.90
26691;DHT22;14307;51.718;8.938;2023-07-31T16:40:14;17.20;99.90
26691;DHT22;14307;51.718;8.938;2023-07-31T16:42:41;17.30;99.90
26691;DHT22;14307;51.718;8.938;2023-07-31T16:45:08;17.30;99.90
26691;DHT22;14307;51.718;8.938;2023-07-31T16:47:35;17.30;99.90
26691;DHT22;14307;51.718;8.938;2023-07-31T16:50:05;17.30;99.90
26691;DHT22;14307;51.718;8.938;2023-07-31T16:52:32;17.30;99.90
26691;DHT22;14307;51.718;8.938;2023-07-31T16:54:59;17.40;99.90
26691;DHT22;14307;51.718;8.938;2023-07-31T16:57:26;17.40;99.90
26691;DHT22;14307;51.718;8.938;2023-07-31T16:59:53;17.50;99.90
26691;DHT22;14307;51.718;8.938;2023-07-31T17:02:20;17.60;99.90
26691;DHT22;14307;51.718;8.938;2023-07-31T17:04:47;17.60;99.90
26691;DHT22;14307;51.718;8.938;2023-07-31T17:07:14;17.60;99.90
26691;DHT22;14307;51.718;8.938;2023-07-31T17:09:41;17.60;99.90
26691;DHT22;14307;51.718;8.938;2023-07-31T17:12:08;17.60;99.90
26691;DHT22;14307;51.718;8.938;2023-07-31T17:14:35;17.60;99.90
26691;DHT22;14307;51.718;8.938;2023-07-31T17:17:02;17.50;99.90
26691;DHT22;14307;51.718;8.938;2023-07-31T17:19:29;17.60;99.90
26691;DHT22;14307;51.718;8.938;2023-07-31T17:21:56;17.60;99.90
26691;DHT22;14307;51.718;8.938;2023-07-31T17:24:23;17.60;99.90
26691;DHT22;14307;51.718;8.938;2023-07-31T17:26:50;17.60;99.90
26691;DHT22;14307;51.718;8.938;2023-07-31T17:29:17;17.60;99.90
26691;DHT22;14307;51.718;8.938;2023-07-31T17:31:44;17.60;99.90
26691;DHT22;14307;51.718;8.938;2023-07-31T17:34:10;17.60;99.90
26691;DHT22;14307;51.718;8.938;2023-07-31T17:36:37;17.60;99.90
26691;DHT22;14307;51.718;8.938;2023-07-31T17:39:05;17.60;99.90
26691;DHT22;14307;51.718;8.938;2023-07-31T17:41:32;17.60;99.90
26691;DHT22;14307;51.718;8.938;2023-07-31T17:44:00;17.60;99.90
26691;DHT22;14307;51.718;8.938;2023-07-31T17:46:27;17.60;99.90
26691;DHT22;14307;51.718;8.938;2023-07-31T17:48:54;17.60;99.90